This is the latest recevied weather packets stored in our database for station/object KJ5EHN. If no packets are shown the sender has not sent any weather packets the latest 10 day(s).
| Time | Temp. | Humidity | Pressure | Rain* | Wind** | Luminosity | Snow |
|---|---|---|---|---|---|---|---|
| 1777154963 | 29.44° C | 68% | 1004.7 hPa | 0 mm | - | - | - |
| 1777154660 | 29.44° C | 68% | 1004.6 hPa | 0 mm | - | - | - |
| 1777154356 | 30° C | 67% | 1004.8 hPa | 0 mm | - | - | - |
| 1777154051 | 30° C | 68% | 1004.9 hPa | 0 mm | - | - | - |
| 1777153748 | 30° C | 67% | 1004.6 hPa | 0 mm | - | - | - |
| 1777153444 | 30° C | 67% | 1004.5 hPa | 0 mm | - | - | - |
| 1777153140 | 30° C | 68% | 1004.6 hPa | 0 mm | - | - | - |
| 1777152836 | 30° C | 68% | 1004.7 hPa | 0 mm | - | - | - |
| 1777152533 | 30° C | 68% | 1004.8 hPa | 0 mm | - | - | - |
| 1777152230 | 30° C | 68% | 1004.8 hPa | 0 mm | - | - | - |
| 1777151924 | 30° C | 69% | 1004.8 hPa | 0 mm | - | - | - |
| 1777151621 | 30.56° C | 66% | 1005 hPa | 0 mm | - | - | - |
| 1777151319 | 30.56° C | 65% | 1005 hPa | 0 mm | - | - | - |
| 1777151013 | 31.11° C | 64% | 1005 hPa | 0 mm | - | - | - |
| 1777150713 | 30° C | 67% | 1005 hPa | 0 mm | - | - | - |
| 1777150409 | 30.56° C | 64% | 1004.8 hPa | 0 mm | - | - | - |
| 1777150106 | 30.56° C | 64% | 1005.3 hPa | 0 mm | - | - | - |
| 1777149806 | 30.56° C | 65% | 1005.3 hPa | 0 mm | - | - | - |
| 1777149504 | 31.11° C | 64% | 1005.1 hPa | 0 mm | - | - | - |
| 1777149200 | 31.11° C | 65% | 1005.1 hPa | 0 mm | - | - | - |
| 1777148900 | 30° C | 67% | 1005.3 hPa | 0 mm | - | - | - |
| 1777148597 | 30° C | 68% | 1005.4 hPa | 0 mm | - | - | - |
| 1777148293 | 29.44° C | 70% | 1005.3 hPa | 0 mm | - | - | - |
| 1777147989 | 29.44° C | 69% | 1005.5 hPa | 0 mm | - | - | - |
| 1777147685 | 30.56° C | 67% | 1005.4 hPa | 0 mm | - | - | - |
* Rain latest hour (hover to see other rain measurements)
** Current wind speed in m/s (hover to see current wind gust speed)